Ευχαριστούμε που συμβάλλετε στη διατήρηση της σελίδας μας.

Thank you for your donations, it really helps to maintain the page.


Στατιστικά Καιρού & Άλλα..









Δείκτης Πυρκαγιάς (FWI)

Καστελόκαμπος Ρίον more information Kastelokampos Rion


Κάμερα Ρομανού more information Romanos Cam


προειδοποίηση για Καταιγίδες more information blitzortung!


Ραντάρ Βροχής more information rain snow radar


Επισκεφθείτε άλλες ιστοσελίδες καιρού μας:

Meteopatras.Eu in
Euweather NetworkMeteopatras.Eu in Euweather Network

Weather CloudWeather Cloud

PWS WeatherPWS Weather

Awekas NetWeather data from station Patra-Ketx

WunderGroundWeather data from station Patra-Ketx



Καταιγίδες Από : 03-06-2020 12:00 Μέχρι : 19:00 προειδοποίηση για : Καταιγίδες Επίπεδο : Κίτρινο info button

Ιδιοκτησία και Επίβλεψη : Μουλάς Αντρέας

 Πάτρα, Ελλάδα - Γ.Πλάτος : 38°14'21" Β - Γ.Μήκος : 21°45'5" Α - Υψόμετρο : 56μ

Κοντινές Αναφορές METAR

   
LGRX - Araxos
Ενημερώθηκε: 03-06-2020 14:20
Κυρίως Αίθριος  
Κυρίως Αίθριος  
   Άνεμος: Δύση 9.3 km/h
Άνεμος: Δύση 9.3 km/h
Θερμοκρασία: 23°C
Σημείο Δρόσου: 13°C
Υγρασία: 53%
Βαρόμετρο: 1010 hPa
Σύννεφα: Κυρίως Αίθριος
Ορατότητα: More than 10 km
Λεπτομέρειες Σύννεφου: Κυρίως Αίθριος 1800 ft
LGRX 031120Z 28005KT 9999 FEW018 23/13 Q1010
LGAD - Andravida
Ενημερώθηκε: 03-06-2020 14:20
Κυρίως Αίθριος  
Κυρίως Αίθριος  
   Άνεμος: ΔΒΔ 14.8 km/h
Άνεμος: ΔΒΔ 14.8 km/h
Θερμοκρασία: 24°C
Σημείο Δρόσου: 13°C
Υγρασία: 50%
Βαρόμετρο: 1010 hPa
Σύννεφα: Κυρίως Αίθριος
Ορατότητα: More than 10 km
Λεπτομέρειες Σύννεφου: Κυρίως Αίθριος 2000 ft
LGAD 031120Z 30008KT 9999 FEW020 24/13 Q1010
LGZA - Zakinthos
Ενημερώθηκε: 03-06-2020 13:50
Κυρίως Αίθριος  
Κυρίως Αίθριος  
   Άνεμος: ΑΝΑ 9.3 km/h
Άνεμος: ΑΝΑ 9.3 km/h
Θερμοκρασία: 23°C
Σημείο Δρόσου: 15°C
Υγρασία: 61%
Βαρόμετρο: 1010 hPa
Σύννεφα: Κυρίως Αίθριος
Ορατότητα: More than 10 km
Λεπτομέρειες Σύννεφου: Κυρίως Αίθριος 2000 ft
LGZA 031050Z 12005KT 9999 FEW020 23/15 Q1010
LGKF - Kefallinia
Ενημερώθηκε: 03-06-2020 13:50
Κυρίως Αίθριος  
Κυρίως Αίθριος  
   Άνεμος: ΒΒΔ 22.2 km/h
Άνεμος: ΒΒΔ 22.2 km/h
Θερμοκρασία: 24°C
Σημείο Δρόσου: 11°C
Υγρασία: 44%
Βαρόμετρο: 1011 hPa
Σύννεφα: Κυρίως Αίθριος
Ορατότητα: More than 10 km
Λεπτομέρειες Σύννεφου: Κυρίως Αίθριος 1500 ft
LGKF 031050Z 33012KT 9999 FEW015 24/11 Q1011
LGPZ - Preveza
Ενημερώθηκε: 03-06-2020 14:20
Κυρίως Αίθριος  
Κυρίως Αίθριος  
   Άνεμος: ΝΔ 18.5 km/h
Άνεμος: ΝΔ 18.5 km/h
Θερμοκρασία: 23°C
Σημείο Δρόσου: 16°C
Υγρασία: 65%
Βαρόμετρο: 1010 hPa
Σύννεφα: Κυρίως Αίθριος
Ορατότητα: More than 10 km
Λεπτομέρειες Σύννεφου: Κυρίως Αίθριος 2000 ft
LGPZ 031120Z 23010KT 9999 FEW020 23/16 Q1010
LGKL - Kalamata
Ενημερώθηκε: 03-06-2020 14:20
Κυρίως Αίθριος  
Κυρίως Αίθριος  
   Άνεμος: ΝΝΑ 14.8 km/h
Άνεμος: ΝΝΑ 14.8 km/h
Θερμοκρασία: 25°C
Σημείο Δρόσου: 12°C
Υγρασία: 44%
Βαρόμετρο: 1009 hPa
Σύννεφα: Κυρίως Αίθριος
Ορατότητα: More than 10 km
Λεπτομέρειες Σύννεφου: Κυρίως Αίθριος 3000 ft
LGKL 031120Z 16008KT 9999 FEW030 25/12 Q1009
LGKR - Kerkyra
Ενημερώθηκε: 03-06-2020 14:20
Μερικώς Νεφελώδης  
Μερικώς Νεφελώδης  
   Άνεμος: Δύση 11.1 km/h
Άνεμος: Δύση 11.1 km/h
Θερμοκρασία: 23°C
Σημείο Δρόσου: 13°C
Υγρασία: 53%
Βαρόμετρο: 1010 hPa
Σύννεφα: Μερικώς Νεφελώδης
Ορατότητα: More than 10 km
Λεπτομέρειες Σύννεφου: Μερικώς Νεφελώδης 1600 ft
LGKR 031120Z 26006KT 9999 SCT016 23/13 Q1010 NOSIG
LGIO - Iwannina
Ενημερώθηκε: 03-06-2020 13:50
Μερικώς Νεφελώδης  
Μερικώς Νεφελώδης  
   Άνεμος: ΔΒΔ 9.3 km/h
Άνεμος: ΔΒΔ 9.3 km/h
Θερμοκρασία: 21°C
Σημείο Δρόσου: 10°C
Υγρασία: 50%
Βαρόμετρο: 1010 hPa
Σύννεφα: Μερικώς Νεφελώδης
Ορατότητα: More than 10 km
Λεπτομέρειες Σύννεφου: Μερικώς Νεφελώδης 2500 ft
LGIO 031050Z 29005KT 9999 SCT025TCU 21/10 Q1010
LGPZ - Leykada
Ενημερώθηκε: 03-06-2020 14:20
Κυρίως Αίθριος  
Κυρίως Αίθριος  
   Άνεμος: ΝΔ 18.5 km/h
Άνεμος: ΝΔ 18.5 km/h
Θερμοκρασία: 23°C
Σημείο Δρόσου: 16°C
Υγρασία: 65%
Βαρόμετρο: 1010 hPa
Σύννεφα: Κυρίως Αίθριος
Ορατότητα: More than 10 km
Λεπτομέρειες Σύννεφου: Κυρίως Αίθριος 2000 ft
LGPZ 031120Z 23010KT 9999 FEW020 23/16 Q1010
LGEL - Elefsina
Ενημερώθηκε: 03-06-2020 14:20
Καταιγίδα, Βροχή, Μερικώς Νεφελώδης  
Καταιγίδα, Βροχή, Μερικώς Νεφελώδης  
   Άνεμος: ποικίλλει Άπνοια
Άνεμος: ποικίλλει Άπνοια
Θερμοκρασία: 21°C
Σημείο Δρόσου: 15°C
Υγρασία: 69%
Βαρόμετρο: 1008 hPa
Σύννεφα: Μερικώς Νεφελώδης
Ορατότητα: 8 km
Λεπτομέρειες Σύννεφου: Κυρίως Αίθριος 1800 ft,
Μερικώς Νεφελώδης 2500 ft
LGEL 031120Z /////KT 8000 TSRA FEW018CB SCT025 21/15 Q1008
LGKC - Kythira
Ενημερώθηκε: 03-06-2020 13:50
Κυρίως Αίθριος  
Κυρίως Αίθριος  
   Άνεμος: ΔΝΔ 29.6 km/h
Άνεμος: ΔΝΔ 29.6 km/h
Θερμοκρασία: 21°C
Σημείο Δρόσου: 17°C
Υγρασία: 78%
Βαρόμετρο: 1011 hPa
Σύννεφα: Κυρίως Αίθριος
Ορατότητα: More than 10 km
Λεπτομέρειες Σύννεφου: Κυρίως Αίθριος 1800 ft
LGKC 031050Z 25016KT 9999 FEW018 21/17 Q1011
LGIR - Hraklio
Ενημερώθηκε: 03-06-2020 14:20
Κυρίως Αίθριος  
Κυρίως Αίθριος  
   Άνεμος: Βοράς 11.1 km/h
Άνεμος: Βοράς 11.1 km/h
Θερμοκρασία: 23°C
Σημείο Δρόσου: 15°C
Υγρασία: 61%
Βαρόμετρο: 1010 hPa
Σύννεφα: Κυρίως Αίθριος
Ορατότητα: More than 10 km
Λεπτομέρειες Σύννεφου: Κυρίως Αίθριος 2000 ft
LGIR 031120Z 36006KT 9999 FEW020 23/15 Q1010 NOSIG

Script developed by  Saratoga-weather.org Προσαρμοσμένος για το πρότυπο του  Weerstation Leuven

Μπορείτε να βρείτε πληροφορίες καιρού μας και σε:

European Weather Network

WeatherCloud

Weather Underground

Δύκτιο Σταθμών Ελλάδας

AWEKAS

HAMweather, WeatherForYou, PWS Weather

MeteoPatras.Eu